sensor_id;sensor_type;location;lat;lon;timestamp;P1;durP1;ratioP1;P2;durP2;ratioP2
35456;SDS011;21575;51.538;-0.084;2022-07-09T00:02:04;1.75;;;1.50;;
35456;SDS011;21575;51.538;-0.084;2022-07-09T00:04:29;2.25;;;2.05;;
35456;SDS011;21575;51.538;-0.084;2022-07-09T00:06:55;1.42;;;1.33;;
35456;SDS011;21575;51.538;-0.084;2022-07-09T00:09:21;2.63;;;2.13;;
35456;SDS011;21575;51.538;-0.084;2022-07-09T00:11:46;2.30;;;1.50;;
35456;SDS011;21575;51.538;-0.084;2022-07-09T00:14:12;2.72;;;1.70;;
35456;SDS011;21575;51.538;-0.084;2022-07-09T00:16:38;3.28;;;1.30;;
35456;SDS011;21575;51.538;-0.084;2022-07-09T00:19:03;1.42;;;1.33;;
35456;SDS011;21575;51.538;-0.084;2022-07-09T00:21:29;11.48;;;2.42;;
35456;SDS011;21575;51.538;-0.084;2022-07-09T00:23:55;2.97;;;1.13;;
35456;SDS011;21575;51.538;-0.084;2022-07-09T00:26:20;2.50;;;1.30;;
35456;SDS011;21575;51.538;-0.084;2022-07-09T00:28:46;2.15;;;1.60;;
35456;SDS011;21575;51.538;-0.084;2022-07-09T00:31:12;1.30;;;1.20;;
35456;SDS011;21575;51.538;-0.084;2022-07-09T00:33:38;1.80;;;1.40;;
35456;SDS011;21575;51.538;-0.084;2022-07-09T00:36:03;1.58;;;1.48;;
35456;SDS011;21575;51.538;-0.084;2022-07-09T00:38:29;2.58;;;1.95;;
35456;SDS011;21575;51.538;-0.084;2022-07-09T00:40:55;1.60;;;1.50;;
35456;SDS011;21575;51.538;-0.084;2022-07-09T00:43:21;2.67;;;1.90;;
35456;SDS011;21575;51.538;-0.084;2022-07-09T00:45:47;2.15;;;1.55;;
35456;SDS011;21575;51.538;-0.084;2022-07-09T00:48:14;2.17;;;1.55;;
35456;SDS011;21575;51.538;-0.084;2022-07-09T00:50:41;1.90;;;1.58;;
35456;SDS011;21575;51.538;-0.084;2022-07-09T00:53:15;2.60;;;1.88;;
35456;SDS011;21575;51.538;-0.084;2022-07-09T00:55:42;2.10;;;1.63;;
35456;SDS011;21575;51.538;-0.084;2022-07-09T00:58:11;2.00;;;1.80;;
35456;SDS011;21575;51.538;-0.084;2022-07-09T01:00:38;2.65;;;1.83;;
35456;SDS011;21575;51.538;-0.084;2022-07-09T01:03:05;1.95;;;1.77;;
35456;SDS011;21575;51.538;-0.084;2022-07-09T01:05:31;3.25;;;1.42;;
35456;SDS011;21575;51.538;-0.084;2022-07-09T01:08:01;2.03;;;1.50;;
35456;SDS011;21575;51.538;-0.084;2022-07-09T01:10:29;1.73;;;1.42;;
35456;SDS011;21575;51.538;-0.084;2022-07-09T01:12:55;1.70;;;1.60;;
35456;SDS011;21575;51.538;-0.084;2022-07-09T01:15:20;3.33;;;1.52;;
35456;SDS011;21575;51.538;-0.084;2022-07-09T01:17:46;2.35;;;1.50;;
35456;SDS011;21575;51.538;-0.084;2022-07-09T01:20:12;1.60;;;1.50;;
35456;SDS011;21575;51.538;-0.084;2022-07-09T01:22:37;1.35;;;1.20;;
35456;SDS011;21575;51.538;-0.084;2022-07-09T01:25:07;1.63;;;1.48;;
35456;SDS011;21575;51.538;-0.084;2022-07-09T01:27:34;1.77;;;1.67;;
35456;SDS011;21575;51.538;-0.084;2022-07-09T01:30:02;2.55;;;1.60;;
35456;SDS011;21575;51.538;-0.084;2022-07-09T01:32:28;3.55;;;1.40;;
35456;SDS011;21575;51.538;-0.084;2022-07-09T01:34:54;1.48;;;1.38;;
35456;SDS011;21575;51.538;-0.084;2022-07-09T01:37:20;1.58;;;1.48;;
35456;SDS011;21575;51.538;-0.084;2022-07-09T01:39:46;2.05;;;1.42;;
35456;SDS011;21575;51.538;-0.084;2022-07-09T01:42:17;1.77;;;1.67;;
35456;SDS011;21575;51.538;-0.084;2022-07-09T01:44:46;1.30;;;1.20;;
35456;SDS011;21575;51.538;-0.084;2022-07-09T01:47:13;2.22;;;1.33;;
35456;SDS011;21575;51.538;-0.084;2022-07-09T01:49:41;1.10;;;1.00;;
35456;SDS011;21575;51.538;-0.084;2022-07-09T01:52:07;1.20;;;1.10;;
35456;SDS011;21575;51.538;-0.084;2022-07-09T01:54:33;0.98;;;0.98;;
35456;SDS011;21575;51.538;-0.084;2022-07-09T01:56:59;1.10;;;1.10;;
35456;SDS011;21575;51.538;-0.084;2022-07-09T01:59:25;1.48;;;1.30;;
35456;SDS011;21575;51.538;-0.084;2022-07-09T02:01:50;1.15;;;0.93;;
35456;SDS011;21575;51.538;-0.084;2022-07-09T02:04:16;1.10;;;1.00;;
35456;SDS011;21575;51.538;-0.084;2022-07-09T02:06:42;1.20;;;1.10;;
35456;SDS011;21575;51.538;-0.084;2022-07-09T02:09:07;1.05;;;0.77;;
35456;SDS011;21575;51.538;-0.084;2022-07-09T02:11:33;1.20;;;0.95;;
35456;SDS011;21575;51.538;-0.084;2022-07-09T02:13:58;1.30;;;1.20;;
35456;SDS011;21575;51.538;-0.084;2022-07-09T02:16:24;1.27;;;1.17;;
35456;SDS011;21575;51.538;-0.084;2022-07-09T02:18:50;1.00;;;1.00;;
35456;SDS011;21575;51.538;-0.084;2022-07-09T02:21:18;1.67;;;1.58;;
35456;SDS011;21575;51.538;-0.084;2022-07-09T02:23:43;1.77;;;1.10;;
35456;SDS011;21575;51.538;-0.084;2022-07-09T02:26:10;1.73;;;1.58;;
35456;SDS011;21575;51.538;-0.084;2022-07-09T02:28:36;1.95;;;1.08;;
35456;SDS011;21575;51.538;-0.084;2022-07-09T02:31:01;1.45;;;1.08;;
35456;SDS011;21575;51.538;-0.084;2022-07-09T02:33:27;1.30;;;1.10;;
35456;SDS011;21575;51.538;-0.084;2022-07-09T02:35:53;1.95;;;1.25;;
35456;SDS011;21575;51.538;-0.084;2022-07-09T02:38:19;2.03;;;1.27;;
35456;SDS011;21575;51.538;-0.084;2022-07-09T02:40:46;1.42;;;1.33;;
35456;SDS011;21575;51.538;-0.084;2022-07-09T02:43:12;1.33;;;1.23;;
35456;SDS011;21575;51.538;-0.084;2022-07-09T02:45:38;1.27;;;1.17;;
35456;SDS011;21575;51.538;-0.084;2022-07-09T02:48:04;2.58;;;1.30;;
35456;SDS011;21575;51.538;-0.084;2022-07-09T02:50:29;1.27;;;1.10;;
35456;SDS011;21575;51.538;-0.084;2022-07-09T02:52:55;1.55;;;1.42;;
35456;SDS011;21575;51.538;-0.084;2022-07-09T02:55:21;1.67;;;1.23;;
35456;SDS011;21575;51.538;-0.084;2022-07-09T02:57:46;1.40;;;1.30;;
35456;SDS011;21575;51.538;-0.084;2022-07-09T03:00:12;1.38;;;1.27;;
35456;SDS011;21575;51.538;-0.084;2022-07-09T03:02:37;2.78;;;1.48;;
35456;SDS011;21575;51.538;-0.084;2022-07-09T03:05:03;1.58;;;1.45;;
35456;SDS011;21575;51.538;-0.084;2022-07-09T03:07:29;1.33;;;1.15;;
35456;SDS011;21575;51.538;-0.084;2022-07-09T03:09:55;3.28;;;1.40;;
35456;SDS011;21575;51.538;-0.084;2022-07-09T03:12:21;2.13;;;1.48;;
35456;SDS011;21575;51.538;-0.084;2022-07-09T03:14:47;1.50;;;1.40;;
35456;SDS011;21575;51.538;-0.084;2022-07-09T03:17:12;1.30;;;1.15;;
35456;SDS011;21575;51.538;-0.084;2022-07-09T03:19:38;1.33;;;1.17;;
35456;SDS011;21575;51.538;-0.084;2022-07-09T03:22:04;1.83;;;1.30;;
35456;SDS011;21575;51.538;-0.084;2022-07-09T03:24:30;2.15;;;1.95;;
35456;SDS011;21575;51.538;-0.084;2022-07-09T03:26:56;1.60;;;1.50;;
35456;SDS011;21575;51.538;-0.084;2022-07-09T03:29:22;1.55;;;1.45;;
35456;SDS011;21575;51.538;-0.084;2022-07-09T03:31:48;1.30;;;1.20;;
35456;SDS011;21575;51.538;-0.084;2022-07-09T03:34:13;1.73;;;1.25;;
35456;SDS011;21575;51.538;-0.084;2022-07-09T03:36:40;2.92;;;1.70;;
35456;SDS011;21575;51.538;-0.084;2022-07-09T03:39:06;11.48;;;1.92;;
35456;SDS011;21575;51.538;-0.084;2022-07-09T03:41:32;1.83;;;1.33;;
35456;SDS011;21575;51.538;-0.084;2022-07-09T03:43:58;1.95;;;1.38;;
35456;SDS011;21575;51.538;-0.084;2022-07-09T03:46:23;1.75;;;1.25;;
35456;SDS011;21575;51.538;-0.084;2022-07-09T03:48:49;1.70;;;1.60;;
35456;SDS011;21575;51.538;-0.084;2022-07-09T03:51:15;2.88;;;1.98;;
35456;SDS011;21575;51.538;-0.084;2022-07-09T03:53:41;2.20;;;1.90;;
35456;SDS011;21575;51.538;-0.084;2022-07-09T03:56:07;2.78;;;1.63;;
35456;SDS011;21575;51.538;-0.084;2022-07-09T03:58:32;3.70;;;2.05;;
35456;SDS011;21575;51.538;-0.084;2022-07-09T04:00:58;2.65;;;2.47;;
35456;SDS011;21575;51.538;-0.084;2022-07-09T04:03:24;2.40;;;1.70;;
35456;SDS011;21575;51.538;-0.084;2022-07-09T04:05:49;2.10;;;1.50;;
35456;SDS011;21575;51.538;-0.084;2022-07-09T04:08:15;2.00;;;1.70;;
35456;SDS011;21575;51.538;-0.084;2022-07-09T04:10:41;2.55;;;1.90;;
35456;SDS011;21575;51.538;-0.084;2022-07-09T04:13:07;2.55;;;1.85;;
35456;SDS011;21575;51.538;-0.084;2022-07-09T04:15:32;3.53;;;2.67;;
35456;SDS011;21575;51.538;-0.084;2022-07-09T04:17:58;2.28;;;2.08;;
35456;SDS011;21575;51.538;-0.084;2022-07-09T04:20:24;2.03;;;1.80;;
35456;SDS011;21575;51.538;-0.084;2022-07-09T04:22:50;2.35;;;1.88;;
35456;SDS011;21575;51.538;-0.084;2022-07-09T04:25:16;3.35;;;2.38;;
35456;SDS011;21575;51.538;-0.084;2022-07-09T04:27:42;2.20;;;2.00;;
35456;SDS011;21575;51.538;-0.084;2022-07-09T04:30:08;2.00;;;1.90;;
35456;SDS011;21575;51.538;-0.084;2022-07-09T04:32:35;1.65;;;1.55;;
35456;SDS011;21575;51.538;-0.084;2022-07-09T04:35:01;3.60;;;2.85;;
35456;SDS011;21575;51.538;-0.084;2022-07-09T04:37:27;2.20;;;2.00;;
35456;SDS011;21575;51.538;-0.084;2022-07-09T04:39:53;2.40;;;2.03;;
35456;SDS011;21575;51.538;-0.084;2022-07-09T04:42:18;2.85;;;2.65;;
35456;SDS011;21575;51.538;-0.084;2022-07-09T04:44:45;2.67;;;2.47;;
35456;SDS011;21575;51.538;-0.084;2022-07-09T04:47:11;3.35;;;2.30;;
35456;SDS011;21575;51.538;-0.084;2022-07-09T04:49:37;2.72;;;2.05;;
35456;SDS011;21575;51.538;-0.084;2022-07-09T04:52:03;2.40;;;2.20;;
35456;SDS011;21575;51.538;-0.084;2022-07-09T04:54:29;3.00;;;2.63;;
35456;SDS011;21575;51.538;-0.084;2022-07-09T04:56:55;3.35;;;2.00;;
35456;SDS011;21575;51.538;-0.084;2022-07-09T04:59:21;2.70;;;2.22;;
35456;SDS011;21575;51.538;-0.084;2022-07-09T05:01:46;2.55;;;2.33;;
35456;SDS011;21575;51.538;-0.084;2022-07-09T05:04:13;2.50;;;2.28;;
35456;SDS011;21575;51.538;-0.084;2022-07-09T05:06:38;2.88;;;2.67;;
35456;SDS011;21575;51.538;-0.084;2022-07-09T05:09:05;2.55;;;2.17;;
35456;SDS011;21575;51.538;-0.084;2022-07-09T05:11:30;4.43;;;2.25;;
35456;SDS011;21575;51.538;-0.084;2022-07-09T05:13:57;2.47;;;2.28;;
35456;SDS011;21575;51.538;-0.084;2022-07-09T05:16:23;2.28;;;2.08;;
35456;SDS011;21575;51.538;-0.084;2022-07-09T05:18:48;2.30;;;2.10;;
35456;SDS011;21575;51.538;-0.084;2022-07-09T05:21:14;3.03;;;2.22;;
35456;SDS011;21575;51.538;-0.084;2022-07-09T05:23:40;2.90;;;2.40;;
35456;SDS011;21575;51.538;-0.084;2022-07-09T05:26:05;5.05;;;1.95;;
35456;SDS011;21575;51.538;-0.084;2022-07-09T05:28:31;2.42;;;2.22;;
35456;SDS011;21575;51.538;-0.084;2022-07-09T05:30:57;2.30;;;2.20;;
35456;SDS011;21575;51.538;-0.084;2022-07-09T05:33:23;3.72;;;2.70;;
35456;SDS011;21575;51.538;-0.084;2022-07-09T05:35:48;3.38;;;2.30;;
35456;SDS011;21575;51.538;-0.084;2022-07-09T05:38:14;2.45;;;2.13;;
35456;SDS011;21575;51.538;-0.084;2022-07-09T05:40:40;3.80;;;2.25;;
35456;SDS011;21575;51.538;-0.084;2022-07-09T05:43:05;2.78;;;2.22;;
35456;SDS011;21575;51.538;-0.084;2022-07-09T05:45:31;2.30;;;2.10;;
35456;SDS011;21575;51.538;-0.084;2022-07-09T05:47:57;3.53;;;3.17;;
35456;SDS011;21575;51.538;-0.084;2022-07-09T05:50:22;2.22;;;2.05;;
35456;SDS011;21575;51.538;-0.084;2022-07-09T05:52:48;2.22;;;2.03;;
35456;SDS011;21575;51.538;-0.084;2022-07-09T05:55:14;2.88;;;2.22;;
35456;SDS011;21575;51.538;-0.084;2022-07-09T05:57:40;3.45;;;2.63;;
35456;SDS011;21575;51.538;-0.084;2022-07-09T06:00:06;2.97;;;2.50;;
35456;SDS011;21575;51.538;-0.084;2022-07-09T06:02:32;2.90;;;2.70;;
35456;SDS011;21575;51.538;-0.084;2022-07-09T06:04:58;3.17;;;2.35;;
35456;SDS011;21575;51.538;-0.084;2022-07-09T06:07:24;3.15;;;2.58;;
35456;SDS011;21575;51.538;-0.084;2022-07-09T06:09:50;3.75;;;2.55;;
35456;SDS011;21575;51.538;-0.084;2022-07-09T06:12:15;2.53;;;2.33;;
35456;SDS011;21575;51.538;-0.084;2022-07-09T06:14:41;2.88;;;2.67;;
35456;SDS011;21575;51.538;-0.084;2022-07-09T06:17:07;2.47;;;2.28;;
35456;SDS011;21575;51.538;-0.084;2022-07-09T06:19:35;3.83;;;2.63;;
35456;SDS011;21575;51.538;-0.084;2022-07-09T06:22:02;2.80;;;2.03;;
35456;SDS011;21575;51.538;-0.084;2022-07-09T06:24:28;3.47;;;1.90;;
35456;SDS011;21575;51.538;-0.084;2022-07-09T06:26:57;2.63;;;2.42;;
35456;SDS011;21575;51.538;-0.084;2022-07-09T06:29:22;2.10;;;1.90;;
35456;SDS011;21575;51.538;-0.084;2022-07-09T06:31:48;2.42;;;2.30;;
35456;SDS011;21575;51.538;-0.084;2022-07-09T06:34:14;2.60;;;2.40;;
35456;SDS011;21575;51.538;-0.084;2022-07-09T06:36:39;3.42;;;2.40;;
35456;SDS011;21575;51.538;-0.084;2022-07-09T06:39:09;3.45;;;2.22;;
35456;SDS011;21575;51.538;-0.084;2022-07-09T06:41:54;2.58;;;2.25;;
35456;SDS011;21575;51.538;-0.084;2022-07-09T06:44:19;1.67;;;1.58;;
35456;SDS011;21575;51.538;-0.084;2022-07-09T06:46:45;4.28;;;2.42;;
35456;SDS011;21575;51.538;-0.084;2022-07-09T06:49:11;2.50;;;1.80;;
35456;SDS011;21575;51.538;-0.084;2022-07-09T06:51:36;2.20;;;1.92;;
35456;SDS011;21575;51.538;-0.084;2022-07-09T06:54:02;2.17;;;1.60;;
35456;SDS011;21575;51.538;-0.084;2022-07-09T06:56:28;2.05;;;1.80;;
35456;SDS011;21575;51.538;-0.084;2022-07-09T06:58:53;2.28;;;2.00;;
35456;SDS011;21575;51.538;-0.084;2022-07-09T07:01:19;1.55;;;1.45;;
35456;SDS011;21575;51.538;-0.084;2022-07-09T07:03:44;3.53;;;2.55;;
35456;SDS011;21575;51.538;-0.084;2022-07-09T07:06:10;1.92;;;1.80;;
35456;SDS011;21575;51.538;-0.084;2022-07-09T07:08:36;2.13;;;1.70;;
35456;SDS011;21575;51.538;-0.084;2022-07-09T07:11:01;1.90;;;1.80;;
35456;SDS011;21575;51.538;-0.084;2022-07-09T07:13:27;2.35;;;1.77;;
35456;SDS011;21575;51.538;-0.084;2022-07-09T07:15:53;2.95;;;1.75;;
35456;SDS011;21575;51.538;-0.084;2022-07-09T07:18:18;1.77;;;1.27;;
35456;SDS011;21575;51.538;-0.084;2022-07-09T07:20:44;2.33;;;1.33;;
35456;SDS011;21575;51.538;-0.084;2022-07-09T07:23:10;1.33;;;1.23;;
35456;SDS011;21575;51.538;-0.084;2022-07-09T07:25:36;1.42;;;1.33;;
35456;SDS011;21575;51.538;-0.084;2022-07-09T07:28:01;2.03;;;1.35;;
35456;SDS011;21575;51.538;-0.084;2022-07-09T07:30:28;1.92;;;1.52;;
35456;SDS011;21575;51.538;-0.084;2022-07-09T07:32:57;1.58;;;1.48;;
35456;SDS011;21575;51.538;-0.084;2022-07-09T07:35:26;1.55;;;1.45;;
35456;SDS011;21575;51.538;-0.084;2022-07-09T07:37:52;2.05;;;1.20;;
35456;SDS011;21575;51.538;-0.084;2022-07-09T07:40:17;1.30;;;1.20;;
35456;SDS011;21575;51.538;-0.084;2022-07-09T07:42:43;1.60;;;1.50;;
35456;SDS011;21575;51.538;-0.084;2022-07-09T07:45:09;2.28;;;1.50;;
35456;SDS011;21575;51.538;-0.084;2022-07-09T07:47:35;1.85;;;1.20;;
35456;SDS011;21575;51.538;-0.084;2022-07-09T07:50:01;1.67;;;1.30;;
35456;SDS011;21575;51.538;-0.084;2022-07-09T07:52:27;1.27;;;1.17;;
35456;SDS011;21575;51.538;-0.084;2022-07-09T07:54:52;2.25;;;1.33;;
35456;SDS011;21575;51.538;-0.084;2022-07-09T07:57:18;1.23;;;1.13;;
35456;SDS011;21575;51.538;-0.084;2022-07-09T07:59:43;1.98;;;1.35;;
35456;SDS011;21575;51.538;-0.084;2022-07-09T08:02:11;0.88;;;0.82;;
35456;SDS011;21575;51.538;-0.084;2022-07-09T08:04:37;1.92;;;1.05;;
35456;SDS011;21575;51.538;-0.084;2022-07-09T08:07:03;0.85;;;0.85;;
35456;SDS011;21575;51.538;-0.084;2022-07-09T08:09:28;1.30;;;0.90;;
35456;SDS011;21575;51.538;-0.084;2022-07-09T08:11:55;1.40;;;0.98;;
35456;SDS011;21575;51.538;-0.084;2022-07-09T08:14:20;0.90;;;0.75;;
35456;SDS011;21575;51.538;-0.084;2022-07-09T08:16:46;1.40;;;1.02;;
35456;SDS011;21575;51.538;-0.084;2022-07-09T08:19:12;1.02;;;1.00;;
35456;SDS011;21575;51.538;-0.084;2022-07-09T08:21:39;2.28;;;1.60;;
35456;SDS011;21575;51.538;-0.084;2022-07-09T08:24:05;1.48;;;1.20;;
35456;SDS011;21575;51.538;-0.084;2022-07-09T08:26:31;0.90;;;0.90;;
35456;SDS011;21575;51.538;-0.084;2022-07-09T08:28:57;1.13;;;0.90;;
35456;SDS011;21575;51.538;-0.084;2022-07-09T08:31:22;1.35;;;1.10;;
35456;SDS011;21575;51.538;-0.084;2022-07-09T08:33:48;0.70;;;0.70;;
35456;SDS011;21575;51.538;-0.084;2022-07-09T08:36:15;1.13;;;0.95;;
35456;SDS011;21575;51.538;-0.084;2022-07-09T08:38:41;2.28;;;0.85;;
35456;SDS011;21575;51.538;-0.084;2022-07-09T08:41:07;1.58;;;1.25;;
35456;SDS011;21575;51.538;-0.084;2022-07-09T08:43:34;1.48;;;0.90;;
35456;SDS011;21575;51.538;-0.084;2022-07-09T08:46:03;0.90;;;0.77;;
35456;SDS011;21575;51.538;-0.084;2022-07-09T08:48:33;1.55;;;1.45;;
35456;SDS011;21575;51.538;-0.084;2022-07-09T08:51:00;1.20;;;1.10;;
35456;SDS011;21575;51.538;-0.084;2022-07-09T08:53:26;2.70;;;1.30;;
35456;SDS011;21575;51.538;-0.084;2022-07-09T08:55:53;0.80;;;0.80;;
35456;SDS011;21575;51.538;-0.084;2022-07-09T08:58:19;1.48;;;1.27;;
35456;SDS011;21575;51.538;-0.084;2022-07-09T09:00:45;1.20;;;0.75;;
35456;SDS011;21575;51.538;-0.084;2022-07-09T09:03:12;1.85;;;1.05;;
35456;SDS011;21575;51.538;-0.084;2022-07-09T09:05:38;1.23;;;1.10;;
35456;SDS011;21575;51.538;-0.084;2022-07-09T09:08:17;0.90;;;0.75;;
35456;SDS011;21575;51.538;-0.084;2022-07-09T09:10:47;1.15;;;1.00;;
35456;SDS011;21575;51.538;-0.084;2022-07-09T09:13:14;1.30;;;1.20;;
35456;SDS011;21575;51.538;-0.084;2022-07-09T09:15:43;1.52;;;1.20;;
35456;SDS011;21575;51.538;-0.084;2022-07-09T09:18:09;1.20;;;1.10;;
35456;SDS011;21575;51.538;-0.084;2022-07-09T09:20:35;1.27;;;1.17;;
35456;SDS011;21575;51.538;-0.084;2022-07-09T09:23:01;1.38;;;1.15;;
35456;SDS011;21575;51.538;-0.084;2022-07-09T09:25:29;1.08;;;0.98;;
35456;SDS011;21575;51.538;-0.084;2022-07-09T09:27:56;1.13;;;1.02;;
35456;SDS011;21575;51.538;-0.084;2022-07-09T09:30:25;1.52;;;1.20;;
35456;SDS011;21575;51.538;-0.084;2022-07-09T09:33:02;2.55;;;1.35;;
35456;SDS011;21575;51.538;-0.084;2022-07-09T09:35:29;1.40;;;1.10;;
35456;SDS011;21575;51.538;-0.084;2022-07-09T09:37:58;2.70;;;1.05;;
35456;SDS011;21575;51.538;-0.084;2022-07-09T09:40:25;1.10;;;1.00;;
35456;SDS011;21575;51.538;-0.084;2022-07-09T09:42:51;1.30;;;1.20;;
35456;SDS011;21575;51.538;-0.084;2022-07-09T09:45:21;1.25;;;1.10;;
35456;SDS011;21575;51.538;-0.084;2022-07-09T09:47:49;1.40;;;1.30;;
35456;SDS011;21575;51.538;-0.084;2022-07-09T09:50:16;0.90;;;0.90;;
35456;SDS011;21575;51.538;-0.084;2022-07-09T09:52:46;1.33;;;1.20;;
35456;SDS011;21575;51.538;-0.084;2022-07-09T09:55:13;1.02;;;1.02;;
35456;SDS011;21575;51.538;-0.084;2022-07-09T09:57:40;0.82;;;0.82;;
35456;SDS011;21575;51.538;-0.084;2022-07-09T10:00:06;1.00;;;0.95;;
35456;SDS011;21575;51.538;-0.084;2022-07-09T10:02:33;0.90;;;0.88;;
35456;SDS011;21575;51.538;-0.084;2022-07-09T10:05:00;0.63;;;0.60;;
35456;SDS011;21575;51.538;-0.084;2022-07-09T10:07:27;1.95;;;1.60;;
35456;SDS011;21575;51.538;-0.084;2022-07-09T10:09:58;1.30;;;1.20;;
35456;SDS011;21575;51.538;-0.084;2022-07-09T10:12:30;1.48;;;1.23;;
35456;SDS011;21575;51.538;-0.084;2022-07-09T10:15:02;1.40;;;1.10;;
35456;SDS011;21575;51.538;-0.084;2022-07-09T10:17:44;1.33;;;0.90;;
35456;SDS011;21575;51.538;-0.084;2022-07-09T10:20:09;3.75;;;1.30;;
35456;SDS011;21575;51.538;-0.084;2022-07-09T10:22:37;2.42;;;1.15;;
35456;SDS011;21575;51.538;-0.084;2022-07-09T10:25:05;1.75;;;1.00;;
35456;SDS011;21575;51.538;-0.084;2022-07-09T10:27:44;1.15;;;0.80;;
35456;SDS011;21575;51.538;-0.084;2022-07-09T10:33:01;1.30;;;1.00;;
35456;SDS011;21575;51.538;-0.084;2022-07-09T10:35:40;0.75;;;0.73;;
35456;SDS011;21575;51.538;-0.084;2022-07-09T10:38:10;1.23;;;0.82;;
35456;SDS011;21575;51.538;-0.084;2022-07-09T10:40:38;1.23;;;1.00;;
35456;SDS011;21575;51.538;-0.084;2022-07-09T10:43:07;1.23;;;1.13;;
35456;SDS011;21575;51.538;-0.084;2022-07-09T10:45:37;1.35;;;1.02;;
35456;SDS011;21575;51.538;-0.084;2022-07-09T10:48:09;0.75;;;0.75;;
35456;SDS011;21575;51.538;-0.084;2022-07-09T10:50:37;1.58;;;1.23;;
35456;SDS011;21575;51.538;-0.084;2022-07-09T10:53:04;1.02;;;1.00;;
35456;SDS011;21575;51.538;-0.084;2022-07-09T10:55:30;1.13;;;0.95;;
35456;SDS011;21575;51.538;-0.084;2022-07-09T10:57:56;1.05;;;0.95;;
35456;SDS011;21575;51.538;-0.084;2022-07-09T11:00:23;1.90;;;0.90;;
35456;SDS011;21575;51.538;-0.084;2022-07-09T11:02:57;1.45;;;1.10;;
35456;SDS011;21575;51.538;-0.084;2022-07-09T11:05:25;1.88;;;1.20;;
35456;SDS011;21575;51.538;-0.084;2022-07-09T11:07:58;2.05;;;0.95;;
35456;SDS011;21575;51.538;-0.084;2022-07-09T11:10:26;1.98;;;1.45;;
35456;SDS011;21575;51.538;-0.084;2022-07-09T11:12:56;0.82;;;0.77;;
35456;SDS011;21575;51.538;-0.084;2022-07-09T11:15:24;1.30;;;1.20;;
35456;SDS011;21575;51.538;-0.084;2022-07-09T11:20:27;0.80;;;0.80;;
35456;SDS011;21575;51.538;-0.084;2022-07-09T11:22:55;0.98;;;0.98;;
35456;SDS011;21575;51.538;-0.084;2022-07-09T11:25:25;3.53;;;1.15;;
35456;SDS011;21575;51.538;-0.084;2022-07-09T11:27:56;1.98;;;0.90;;
35456;SDS011;21575;51.538;-0.084;2022-07-09T11:30:22;1.00;;;1.00;;
35456;SDS011;21575;51.538;-0.084;2022-07-09T11:32:49;1.10;;;1.10;;
35456;SDS011;21575;51.538;-0.084;2022-07-09T11:38:10;2.72;;;0.90;;
35456;SDS011;21575;51.538;-0.084;2022-07-09T11:40:36;1.00;;;0.98;;
35456;SDS011;21575;51.538;-0.084;2022-07-09T11:43:02;0.90;;;0.80;;
35456;SDS011;21575;51.538;-0.084;2022-07-09T11:45:36;0.85;;;0.80;;
35456;SDS011;21575;51.538;-0.084;2022-07-09T11:50:32;0.93;;;0.80;;
35456;SDS011;21575;51.538;-0.084;2022-07-09T11:52:58;1.13;;;1.00;;
35456;SDS011;21575;51.538;-0.084;2022-07-09T11:55:31;1.92;;;1.30;;
35456;SDS011;21575;51.538;-0.084;2022-07-09T11:58:06;1.40;;;1.30;;
35456;SDS011;21575;51.538;-0.084;2022-07-09T12:00:33;1.20;;;1.20;;
35456;SDS011;21575;51.538;-0.084;2022-07-09T12:03:01;1.33;;;1.10;;
35456;SDS011;21575;51.538;-0.084;2022-07-09T12:05:30;1.02;;;0.95;;
35456;SDS011;21575;51.538;-0.084;2022-07-09T12:07:57;1.38;;;1.20;;
35456;SDS011;21575;51.538;-0.084;2022-07-09T12:10:25;1.30;;;1.00;;
35456;SDS011;21575;51.538;-0.084;2022-07-09T12:12:52;1.30;;;1.20;;
35456;SDS011;21575;51.538;-0.084;2022-07-09T12:15:18;1.58;;;1.48;;
35456;SDS011;21575;51.538;-0.084;2022-07-09T12:17:44;1.05;;;0.80;;
35456;SDS011;21575;51.538;-0.084;2022-07-09T12:20:09;1.52;;;1.23;;
35456;SDS011;21575;51.538;-0.084;2022-07-09T12:22:35;1.05;;;1.05;;
35456;SDS011;21575;51.538;-0.084;2022-07-09T12:25:01;1.38;;;1.27;;
35456;SDS011;21575;51.538;-0.084;2022-07-09T12:27:27;1.17;;;1.08;;
35456;SDS011;21575;51.538;-0.084;2022-07-09T12:29:53;1.30;;;1.00;;
35456;SDS011;21575;51.538;-0.084;2022-07-09T12:32:18;1.10;;;0.90;;
35456;SDS011;21575;51.538;-0.084;2022-07-09T12:34:44;0.80;;;0.70;;
35456;SDS011;21575;51.538;-0.084;2022-07-09T12:37:10;1.25;;;0.82;;
35456;SDS011;21575;51.538;-0.084;2022-07-09T12:39:35;0.80;;;0.80;;
35456;SDS011;21575;51.538;-0.084;2022-07-09T12:42:01;1.30;;;1.20;;
35456;SDS011;21575;51.538;-0.084;2022-07-09T12:44:27;2.40;;;0.90;;
35456;SDS011;21575;51.538;-0.084;2022-07-09T12:46:53;1.38;;;1.30;;
35456;SDS011;21575;51.538;-0.084;2022-07-09T12:49:19;1.88;;;1.00;;
35456;SDS011;21575;51.538;-0.084;2022-07-09T12:51:44;0.75;;;0.75;;
35456;SDS011;21575;51.538;-0.084;2022-07-09T12:54:10;0.90;;;0.90;;
35456;SDS011;21575;51.538;-0.084;2022-07-09T12:56:36;1.60;;;1.10;;
35456;SDS011;21575;51.538;-0.084;2022-07-09T12:59:02;2.13;;;1.42;;
35456;SDS011;21575;51.538;-0.084;2022-07-09T13:01:28;1.10;;;0.93;;
35456;SDS011;21575;51.538;-0.084;2022-07-09T13:03:54;1.05;;;0.90;;
35456;SDS011;21575;51.538;-0.084;2022-07-09T13:06:19;0.65;;;0.65;;
35456;SDS011;21575;51.538;-0.084;2022-07-09T13:09:02;1.48;;;1.25;;
35456;SDS011;21575;51.538;-0.084;2022-07-09T13:11:29;1.40;;;1.05;;
35456;SDS011;21575;51.538;-0.084;2022-07-09T13:13:55;1.20;;;0.90;;
35456;SDS011;21575;51.538;-0.084;2022-07-09T13:16:21;0.73;;;0.70;;
35456;SDS011;21575;51.538;-0.084;2022-07-09T13:18:47;1.17;;;1.00;;
35456;SDS011;21575;51.538;-0.084;2022-07-09T13:21:13;1.70;;;1.40;;
35456;SDS011;21575;51.538;-0.084;2022-07-09T13:23:39;1.52;;;1.20;;
35456;SDS011;21575;51.538;-0.084;2022-07-09T13:26:05;0.93;;;0.93;;
35456;SDS011;21575;51.538;-0.084;2022-07-09T13:28:31;1.08;;;0.80;;
35456;SDS011;21575;51.538;-0.084;2022-07-09T13:30:57;1.00;;;0.98;;
35456;SDS011;21575;51.538;-0.084;2022-07-09T13:33:23;1.30;;;0.90;;
35456;SDS011;21575;51.538;-0.084;2022-07-09T13:35:49;0.93;;;0.93;;
35456;SDS011;21575;51.538;-0.084;2022-07-09T13:38:15;0.60;;;0.60;;
35456;SDS011;21575;51.538;-0.084;2022-07-09T13:40:41;1.52;;;1.05;;
35456;SDS011;21575;51.538;-0.084;2022-07-09T13:43:06;1.08;;;0.98;;
35456;SDS011;21575;51.538;-0.084;2022-07-09T13:45:32;1.00;;;1.00;;
35456;SDS011;21575;51.538;-0.084;2022-07-09T13:47:57;0.93;;;0.90;;
35456;SDS011;21575;51.538;-0.084;2022-07-09T13:50:23;0.95;;;0.90;;
35456;SDS011;21575;51.538;-0.084;2022-07-09T13:52:49;1.73;;;1.02;;
35456;SDS011;21575;51.538;-0.084;2022-07-09T13:55:15;1.08;;;0.60;;
35456;SDS011;21575;51.538;-0.084;2022-07-09T13:57:41;0.52;;;0.52;;
35456;SDS011;21575;51.538;-0.084;2022-07-09T14:00:07;1.50;;;1.00;;
35456;SDS011;21575;51.538;-0.084;2022-07-09T14:02:33;2.17;;;1.23;;
35456;SDS011;21575;51.538;-0.084;2022-07-09T14:05:00;1.48;;;0.90;;
35456;SDS011;21575;51.538;-0.084;2022-07-09T14:07:26;0.93;;;0.90;;
35456;SDS011;21575;51.538;-0.084;2022-07-09T14:09:52;0.70;;;0.70;;
35456;SDS011;21575;51.538;-0.084;2022-07-09T14:12:18;1.20;;;0.80;;
35456;SDS011;21575;51.538;-0.084;2022-07-09T14:14:45;1.23;;;0.70;;
35456;SDS011;21575;51.538;-0.084;2022-07-09T14:17:11;0.88;;;0.85;;
35456;SDS011;21575;51.538;-0.084;2022-07-09T14:19:36;0.80;;;0.80;;
35456;SDS011;21575;51.538;-0.084;2022-07-09T14:22:02;0.80;;;0.80;;
35456;SDS011;21575;51.538;-0.084;2022-07-09T14:24:28;1.60;;;1.50;;
35456;SDS011;21575;51.538;-0.084;2022-07-09T14:26:54;1.35;;;1.25;;
35456;SDS011;21575;51.538;-0.084;2022-07-09T14:29:20;1.10;;;1.00;;
35456;SDS011;21575;51.538;-0.084;2022-07-09T14:31:45;1.60;;;1.50;;
35456;SDS011;21575;51.538;-0.084;2022-07-09T14:34:11;2.40;;;1.40;;
35456;SDS011;21575;51.538;-0.084;2022-07-09T14:36:37;1.65;;;1.55;;
35456;SDS011;21575;51.538;-0.084;2022-07-09T14:39:03;1.30;;;1.13;;
35456;SDS011;21575;51.538;-0.084;2022-07-09T14:41:29;1.15;;;1.00;;